Hattiesburg Bobby L Chain Municipal Airport
KHBG : now visible

Airfield :











YOU CAN JOIN US ON...

 
LOGIN :

Register | Disclaimer

   EN    FR    IT 

 









Legend :    VFR   Marginal VFR   IFR   Intensive IFR   Very Intensive IFR
Visi :
Ceiling :
>= 8 km
>= 3000ft
5 to 8 km
1000 to 3000 ft
1500m to 5 km
500 to 1000 ft
800 to 1500m
200 to 500 ft
< 800m
< 200 ft
Symbols :   Thunderstorms  Fog  Heavy snow  Heavy precipitations  Wind > 20 kt






- Airport Elevation : 151 ft


KHBG - Hattiesburg Bobby L Chain Municipal

CURRENT METAR :
  • 272053Z AUTO 03006KT 10SM CLR 30/15 A3003 RMK AO2 SLP166 T03000150 56024

EXPIRED METARs :
  • 271953Z AUTO 00000KT 10SM CLR 29/14 A3005 RMK AO2 SLP171 T02890139
  • 271853Z AUTO 00000KT 10SM CLR 29/14 A3007 RMK AO2 SLP180 T02890139

TAF KHBG
Valid from the 27 at 18:00 until the 28 at 18:00 UTC


271735Z 2718/2818 11004KT P6SM SKC
FM280900 00000KT 6SM BR BKN005
FM281100 00000KT 4SM BR BKN002
FM281300 00000KT P6SM BKN005
FM281500 14003KT P6SM BKN020
FM281600 14004KT P6SM BKN035
KZHU FIR / North America



MET'MAP, your aeronautical weather chart ! - Copyright ORBIFLY December 2007 - Disclaimer

ORBIFLY MET'MAP TEAM :

Programming & Development : Alexandra Zaïnal
Concept & original design : Baudouin d'Aumeries
Assistance for programming : Marc-Olivier Méhu
Technical & hardware support : Manuel Goepfert

Contact : metmap@orbifly.com




SOURCES & CREDITS :

   NOAA       Earth
Advisory